createdAt,value
2018-06-29T00:03:00.437Z,10.68
2018-06-29T00:06:10.888Z,10.93
2018-06-29T00:09:21.710Z,12.85
2018-06-29T00:12:31.684Z,10.70
2018-06-29T00:15:42.054Z,11.43
2018-06-29T00:18:52.486Z,11.08
2018-06-29T00:22:03.401Z,13.95
2018-06-29T00:25:14.368Z,10.75
2018-06-29T00:28:25.068Z,9.20
2018-06-29T00:31:35.920Z,12.18
2018-06-29T00:34:46.744Z,9.65
2018-06-29T00:37:56.969Z,9.20
2018-06-29T00:41:07.877Z,9.10
2018-06-29T00:44:18.511Z,9.20
2018-06-29T00:47:29.381Z,11.68
2018-06-29T00:50:40.944Z,9.13
2018-06-29T00:53:51.254Z,10.55
2018-06-29T00:57:01.888Z,11.18
2018-06-29T01:00:12.635Z,8.80
2018-06-29T01:03:22.728Z,11.25
2018-06-29T01:06:33.555Z,10.32
2018-06-29T01:09:44.201Z,10.68
2018-06-29T01:12:54.078Z,12.93
2018-06-29T01:16:04.062Z,11.38
2018-06-29T01:19:14.948Z,10.50
2018-06-29T01:22:24.925Z,9.63
2018-06-29T01:25:35.324Z,12.80
2018-06-29T01:28:45.543Z,13.35
2018-06-29T01:31:55.903Z,11.43
2018-06-29T01:35:06.659Z,10.03
2018-06-29T01:38:17.150Z,10.40
2018-06-29T01:41:27.340Z,12.13
2018-06-29T01:44:38.174Z,9.15
2018-06-29T01:47:48.244Z,9.93
2018-06-29T01:50:59.878Z,11.68
2018-06-29T01:54:10.022Z,9.98
2018-06-29T01:57:20.964Z,10.23
2018-06-29T02:00:31.053Z,11.15
2018-06-29T02:03:41.775Z,8.75
2018-06-29T02:06:52.583Z,10.55
2018-06-29T02:10:03.560Z,10.35
2018-06-29T02:13:14.491Z,10.93
2018-06-29T02:16:25.032Z,12.20
2018-06-29T02:19:35.525Z,9.83
2018-06-29T02:22:46.505Z,10.85
2018-06-29T02:25:57.093Z,11.83
2018-06-29T02:29:07.138Z,13.10
2018-06-29T02:32:17.890Z,12.15
2018-06-29T02:35:28.047Z,10.85
2018-06-29T02:38:38.653Z,10.53
2018-06-29T02:41:48.632Z,10.23
2018-06-29T02:44:58.684Z,8.85
2018-06-29T02:48:08.825Z,8.85
2018-06-29T02:51:19.233Z,13.20
2018-06-29T02:54:29.863Z,11.73
2018-06-29T02:57:39.753Z,10.32
2018-06-29T03:00:49.859Z,13.90
2018-06-29T03:03:59.904Z,10.93
2018-06-29T03:07:10.658Z,9.38
2018-06-29T03:10:21.375Z,9.58
2018-06-29T03:13:31.439Z,10.55
2018-06-29T03:16:41.322Z,13.80
2018-06-29T03:19:51.964Z,10.80
2018-06-29T03:23:02.660Z,10.32
2018-06-29T03:26:13.196Z,12.00
2018-06-29T03:29:23.822Z,11.40
2018-06-29T03:32:33.789Z,11.38
2018-06-29T03:35:44.006Z,11.08
2018-06-29T03:38:54.261Z,9.20
2018-06-29T03:42:05.119Z,9.08
2018-06-29T03:45:16.073Z,9.98
2018-06-29T03:48:26.085Z,11.48
2018-06-29T03:51:36.734Z,11.28
2018-06-29T03:54:53.249Z,10.48
2018-06-29T03:58:04.295Z,9.75
2018-06-29T04:01:14.521Z,9.53
2018-06-29T04:04:24.516Z,11.80
2018-06-29T04:07:34.578Z,13.65
2018-06-29T04:10:45.338Z,10.25
2018-06-29T04:13:56.111Z,13.65
2018-06-29T04:17:06.927Z,11.12
2018-06-29T04:20:16.849Z,12.10
2018-06-29T04:23:27.616Z,14.68
2018-06-29T04:26:37.595Z,11.63
2018-06-29T04:29:48.431Z,17.10
2018-06-29T04:32:59.162Z,15.13
2018-06-29T04:36:09.428Z,13.80
2018-06-29T04:39:20.161Z,12.25
2018-06-29T04:42:31.067Z,10.80
2018-06-29T04:45:40.924Z,10.05
2018-06-29T04:48:51.653Z,11.93
2018-06-29T04:52:03.083Z,12.07
2018-06-29T04:55:13.407Z,13.13
2018-06-29T04:58:23.765Z,10.28
2018-06-29T05:01:34.602Z,12.30
2018-06-29T05:04:45.509Z,11.75
2018-06-29T05:07:56.125Z,10.95
2018-06-29T05:11:06.021Z,11.45
2018-06-29T05:14:16.729Z,11.10
2018-06-29T05:17:27.508Z,11.45
2018-06-29T05:20:38.351Z,11.20
2018-06-29T05:23:48.292Z,10.43
2018-06-29T05:26:59.158Z,11.38
2018-06-29T05:30:10.250Z,13.50
2018-06-29T05:33:20.792Z,10.95
2018-06-29T05:36:31.532Z,10.30
2018-06-29T05:39:42.385Z,10.78
2018-06-29T05:42:52.233Z,15.18
2018-06-29T05:46:02.485Z,12.95
2018-06-29T05:49:12.515Z,10.40
2018-06-29T05:52:23.975Z,11.40
2018-06-29T05:55:34.006Z,10.65
2018-06-29T05:58:43.924Z,10.23
2018-06-29T06:01:54.023Z,11.88
2018-06-29T06:05:04.899Z,7.12
2018-06-29T06:08:15.681Z,6.92
2018-06-29T06:11:25.658Z,6.33
2018-06-29T06:14:35.475Z,6.65
2018-06-29T06:17:45.748Z,7.78
2018-06-29T06:20:55.714Z,6.22
2018-06-29T06:24:05.773Z,6.53
2018-06-29T06:27:15.815Z,8.03
2018-06-29T06:30:25.763Z,6.37
2018-06-29T06:33:36.661Z,5.67
2018-06-29T06:36:47.555Z,6.85
2018-06-29T06:39:58.344Z,6.53
2018-06-29T06:43:09.076Z,5.58
2018-06-29T06:46:20.029Z,5.10
2018-06-29T06:49:29.920Z,6.37
2018-06-29T06:52:40.388Z,7.83
2018-06-29T06:55:51.137Z,5.12
2018-06-29T06:59:01.892Z,7.45
2018-06-29T07:02:12.511Z,7.37
2018-06-29T07:05:22.784Z,5.42
2018-06-29T07:08:33.483Z,7.45
2018-06-29T07:11:43.782Z,7.60
2018-06-29T07:14:54.974Z,8.08
2018-06-29T07:18:05.339Z,5.85
2018-06-29T07:21:16.037Z,6.97
2018-06-29T07:24:26.188Z,5.03
2018-06-29T07:27:36.337Z,5.67
2018-06-29T07:30:47.480Z,5.97
2018-06-29T07:33:58.024Z,6.83
2018-06-29T07:37:08.193Z,7.60
2018-06-29T07:40:18.868Z,5.60
2018-06-29T07:43:29.616Z,5.85
2018-06-29T07:46:40.724Z,5.85
2018-06-29T07:49:51.527Z,7.42
2018-06-29T07:53:02.379Z,8.00
2018-06-29T07:56:12.757Z,9.00
2018-06-29T07:59:23.524Z,8.03
2018-06-29T08:02:34.473Z,6.42
2018-06-29T08:05:45.090Z,6.50
2018-06-29T08:08:55.626Z,5.33
2018-06-29T08:12:05.816Z,5.42
2018-06-29T08:15:15.378Z,6.83
2018-06-29T08:18:26.021Z,7.50
2018-06-29T08:21:36.249Z,7.28
2018-06-29T08:24:57.480Z,6.97
2018-06-29T08:28:07.875Z,7.45
2018-06-29T08:31:17.973Z,7.72
2018-06-29T08:34:28.203Z,6.65
2018-06-29T08:37:39.491Z,5.95
2018-06-29T08:40:49.950Z,7.30
2018-06-29T08:44:00.829Z,7.45
2018-06-29T08:47:11.711Z,8.15
2018-06-29T08:50:22.627Z,8.48
2018-06-29T08:53:33.686Z,8.40
2018-06-29T08:56:44.336Z,6.12
2018-06-29T08:59:55.015Z,6.70
2018-06-29T09:03:04.933Z,8.13
2018-06-29T09:06:15.750Z,8.20
2018-06-29T09:09:26.641Z,6.92
2018-06-29T09:12:38.847Z,8.35
2018-06-29T09:15:49.745Z,7.92
2018-06-29T09:19:00.263Z,7.73
2018-06-29T09:22:10.771Z,6.90
2018-06-29T09:25:20.897Z,8.15
2018-06-29T09:28:31.720Z,6.87
2018-06-29T09:31:42.599Z,6.72
2018-06-29T09:34:53.283Z,8.88
2018-06-29T09:38:03.865Z,7.50
2018-06-29T09:41:14.227Z,7.15
2018-06-29T09:44:24.209Z,8.00
2018-06-29T09:47:33.919Z,9.60
2018-06-29T09:50:43.779Z,11.30
2018-06-29T09:53:54.287Z,9.37
2018-06-29T09:57:04.593Z,7.27
2018-06-29T10:00:20.696Z,7.57
2018-06-29T10:03:30.427Z,5.50
2018-06-29T10:06:40.144Z,9.00
2018-06-29T10:09:50.417Z,9.40
2018-06-29T10:13:00.526Z,5.80
2018-06-29T10:16:10.885Z,7.07
2018-06-29T10:19:20.837Z,6.53
2018-06-29T10:22:30.944Z,7.30
2018-06-29T10:25:41.232Z,5.80
2018-06-29T10:28:51.724Z,6.93
2018-06-29T10:32:01.556Z,6.63
2018-06-29T10:35:11.550Z,5.60
2018-06-29T10:38:21.269Z,5.80
2018-06-29T10:41:31.379Z,6.80
2018-06-29T10:44:41.222Z,6.80
2018-06-29T10:47:51.273Z,7.53
2018-06-29T10:51:01.068Z,5.90
2018-06-29T10:54:11.700Z,6.17
2018-06-29T10:57:22.104Z,7.63
2018-06-29T11:00:32.854Z,5.77
2018-06-29T11:03:42.465Z,6.30
2018-06-29T11:06:52.460Z,4.70
2018-06-29T11:10:02.446Z,7.80
2018-06-29T11:13:12.111Z,6.93
2018-06-29T11:16:22.538Z,8.43
2018-06-29T11:19:32.383Z,5.43
2018-06-29T11:22:42.694Z,5.90
2018-06-29T11:25:53.413Z,5.00
2018-06-29T11:29:03.512Z,4.97
2018-06-29T11:32:13.327Z,5.03
2018-06-29T11:35:22.948Z,5.50
2018-06-29T11:38:33.555Z,5.97
2018-06-29T11:41:43.833Z,4.43
2018-06-29T11:44:53.972Z,5.70
2018-06-29T11:48:03.613Z,4.60
2018-06-29T11:51:13.315Z,4.60
2018-06-29T11:54:23.698Z,6.10
2018-06-29T11:57:34.059Z,4.87
2018-06-29T12:00:43.888Z,5.47
2018-06-29T12:03:54.131Z,4.53
2018-06-29T12:07:04.017Z,3.87
2018-06-29T12:10:13.735Z,5.20
2018-06-29T12:13:23.404Z,8.17
2018-06-29T12:16:33.221Z,4.30
2018-06-29T12:19:43.368Z,4.50
2018-06-29T12:22:53.532Z,4.70
2018-06-29T12:26:03.373Z,4.07
2018-06-29T12:29:14.183Z,5.07
2018-06-29T12:32:24.078Z,4.60
2018-06-29T12:35:34.457Z,4.20
2018-06-29T12:38:44.480Z,5.23
2018-06-29T12:41:54.713Z,4.23
2018-06-29T12:45:04.358Z,4.57
2018-06-29T12:48:14.151Z,4.97
2018-06-29T12:51:24.743Z,4.23
2018-06-29T12:54:35.071Z,3.60
2018-06-29T12:57:45.400Z,3.83
2018-06-29T13:00:56.069Z,4.17
2018-06-29T13:04:05.770Z,4.10
2018-06-29T13:07:16.258Z,4.50
2018-06-29T13:10:26.005Z,3.87
2018-06-29T13:13:35.781Z,3.40
2018-06-29T13:16:45.642Z,3.60
2018-06-29T13:19:56.157Z,3.80
2018-06-29T13:23:06.583Z,6.03
2018-06-29T13:26:16.983Z,3.40
2018-06-29T13:29:27.196Z,5.33
2018-06-29T13:32:37.384Z,3.37
2018-06-29T13:35:47.353Z,3.43
2018-06-29T13:38:56.886Z,3.30
2018-06-29T13:42:07.183Z,3.10
2018-06-29T13:45:16.796Z,4.00
2018-06-29T13:48:26.543Z,3.67
2018-06-29T13:51:36.475Z,4.10
2018-06-29T13:54:47.467Z,4.57
2018-06-29T13:57:58.065Z,3.00
2018-06-29T14:01:08.936Z,4.53
2018-06-29T14:04:19.415Z,3.40
2018-06-29T14:07:29.062Z,6.20
2018-06-29T14:10:40.629Z,3.33
2018-06-29T14:13:50.752Z,4.07
2018-06-29T14:17:00.049Z,3.00
2018-06-29T14:20:10.970Z,3.50
2018-06-29T14:23:21.929Z,3.00
2018-06-29T14:26:32.087Z,3.20
2018-06-29T14:29:42.002Z,3.30
2018-06-29T14:32:52.399Z,4.43
2018-06-29T14:36:02.667Z,5.00
2018-06-29T14:39:13.550Z,7.10
2018-06-29T14:42:24.212Z,5.00
2018-06-29T14:45:35.026Z,3.60
2018-06-29T14:48:45.994Z,4.67
2018-06-29T14:51:58.124Z,3.87
2018-06-29T14:55:08.835Z,4.60
2018-06-29T15:00:04.782Z,4.43
2018-06-29T15:03:15.053Z,3.57
2018-06-29T15:06:25.369Z,4.03
2018-06-29T15:09:35.950Z,5.40
2018-06-29T15:12:46.188Z,4.40
2018-06-29T15:15:56.857Z,3.80
2018-06-29T15:19:06.614Z,4.30
2018-06-29T15:22:17.192Z,4.63
2018-06-29T15:25:27.151Z,3.47
2018-06-29T15:28:38.233Z,3.30
2018-06-29T15:31:48.694Z,3.27
2018-06-29T15:34:58.828Z,3.50
2018-06-29T15:38:08.632Z,3.57
2018-06-29T15:41:18.667Z,3.60
2018-06-29T15:44:28.620Z,3.37
2018-06-29T15:47:39.346Z,4.27
2018-06-29T15:50:49.486Z,3.70
2018-06-29T15:53:58.998Z,3.30
2018-06-29T15:57:10.402Z,3.03
2018-06-29T16:00:20.869Z,3.10
2018-06-29T16:03:30.421Z,2.80
2018-06-29T16:06:40.219Z,3.10
2018-06-29T16:09:50.205Z,3.20
2018-06-29T16:12:59.914Z,3.60
2018-06-29T16:16:10.058Z,4.07
2018-06-29T16:19:20.135Z,3.20
2018-06-29T16:22:30.156Z,2.90
2018-06-29T16:25:40.246Z,3.50
2018-06-29T16:28:49.965Z,3.07
2018-06-29T16:32:00.083Z,3.53
2018-06-29T16:35:10.257Z,3.63
2018-06-29T16:38:20.186Z,3.77
2018-06-29T16:41:30.059Z,3.00
2018-06-29T16:44:40.232Z,3.60
2018-06-29T16:47:50.493Z,2.73
2018-06-29T16:51:00.309Z,3.57
2018-06-29T16:54:10.957Z,3.00
2018-06-29T16:57:21.085Z,2.97
2018-06-29T17:00:31.637Z,3.73
2018-06-29T17:03:41.915Z,3.07
2018-06-29T17:06:52.645Z,5.27
2018-06-29T17:10:02.964Z,4.40
2018-06-29T17:13:13.453Z,3.40
2018-06-29T17:16:23.181Z,3.97
2018-06-29T17:19:33.074Z,3.20
2018-06-29T17:22:42.916Z,3.60
2018-06-29T17:25:53.016Z,3.30
2018-06-29T17:29:02.958Z,4.30
2018-06-29T17:32:12.650Z,3.10
2018-06-29T17:35:22.876Z,5.40
2018-06-29T17:38:33.614Z,3.90
2018-06-29T17:41:43.255Z,4.07
2018-06-29T17:44:53.484Z,4.87
2018-06-29T17:48:03.100Z,5.40
2018-06-29T17:51:12.905Z,2.47
2018-06-29T17:54:22.852Z,4.67
2018-06-29T17:57:33.931Z,4.40
2018-06-29T18:00:43.786Z,3.37
2018-06-29T18:03:53.532Z,4.30
2018-06-29T18:07:03.596Z,4.87
2018-06-29T18:10:13.917Z,3.90
2018-06-29T18:13:23.624Z,3.80
2018-06-29T18:16:35.530Z,3.07
2018-06-29T18:19:46.491Z,3.33
2018-06-29T18:22:56.515Z,3.17
2018-06-29T18:26:06.313Z,7.03
2018-06-29T18:29:16.429Z,4.60
2018-06-29T18:32:26.349Z,4.10
2018-06-29T18:35:36.128Z,4.43
2018-06-29T18:38:46.597Z,3.60
2018-06-29T18:41:56.404Z,3.87
2018-06-29T18:45:06.914Z,3.40
2018-06-29T18:48:16.875Z,4.33
2018-06-29T18:51:27.600Z,5.93
2018-06-29T18:54:37.207Z,4.00
2018-06-29T18:57:47.161Z,4.50
2018-06-29T19:00:57.754Z,4.30
2018-06-29T19:04:07.673Z,5.57
2018-06-29T19:07:18.000Z,7.40
2018-06-29T19:10:27.650Z,7.03
2018-06-29T19:13:37.340Z,10.03
2018-06-29T19:16:47.612Z,10.47
2018-06-29T19:19:57.769Z,15.80
2018-06-29T19:23:08.052Z,8.40
2018-06-29T19:26:18.132Z,4.20
2018-06-29T19:29:27.868Z,5.63
2018-06-29T19:32:37.832Z,4.93
2018-06-29T19:35:47.891Z,6.07
2018-06-29T19:38:59.040Z,4.77
2018-06-29T19:42:10.394Z,6.47
2018-06-29T19:45:20.734Z,4.40
2018-06-29T19:48:30.807Z,5.50
2018-06-29T19:51:40.151Z,6.63
2018-06-29T19:54:50.028Z,4.23
2018-06-29T19:58:00.105Z,5.87
2018-06-29T20:01:10.317Z,6.40
2018-06-29T20:04:19.900Z,5.50
2018-06-29T20:07:29.834Z,6.77
2018-06-29T20:10:40.426Z,5.00
2018-06-29T20:13:50.383Z,4.85
2018-06-29T20:17:00.760Z,4.83
2018-06-29T20:20:11.720Z,6.58
2018-06-29T20:23:22.178Z,5.00
2018-06-29T20:26:32.014Z,6.42
2018-06-29T20:29:41.960Z,5.42
2018-06-29T20:32:52.028Z,5.50
2018-06-29T20:36:02.517Z,6.37
2018-06-29T20:39:13.829Z,6.35
2018-06-29T20:42:24.091Z,6.80
2018-06-29T20:45:41.034Z,4.58
2018-06-29T20:48:51.768Z,5.67
2018-06-29T20:52:01.809Z,4.92
2018-06-29T20:55:12.261Z,5.25
2018-06-29T20:58:23.250Z,5.20
2018-06-29T21:01:33.775Z,3.72
2018-06-29T21:04:44.022Z,6.62
2018-06-29T21:07:54.973Z,4.62
2018-06-29T21:11:12.323Z,4.90
2018-06-29T21:14:22.930Z,5.20
2018-06-29T21:17:32.831Z,4.35
2018-06-29T21:20:43.186Z,4.65
2018-06-29T21:23:53.440Z,4.42
2018-06-29T21:27:04.091Z,5.00
2018-06-29T21:30:13.910Z,5.00
2018-06-29T21:33:24.614Z,3.67
2018-06-29T21:36:35.337Z,4.92
2018-06-29T21:39:45.361Z,5.03
2018-06-29T21:42:55.385Z,5.37
2018-06-29T21:46:05.420Z,4.22
2018-06-29T21:49:15.379Z,7.35
2018-06-29T21:52:25.252Z,6.08
2018-06-29T21:55:36.500Z,4.85
2018-06-29T21:58:47.356Z,4.58
2018-06-29T22:01:57.665Z,6.75
2018-06-29T22:05:08.877Z,6.20
2018-06-29T22:08:19.201Z,5.85
2018-06-29T22:11:30.020Z,5.55
2018-06-29T22:14:40.576Z,5.10
2018-06-29T22:17:50.735Z,4.70
2018-06-29T22:21:01.142Z,5.47
2018-06-29T22:24:11.150Z,7.53
2018-06-29T22:27:22.003Z,5.03
2018-06-29T22:30:32.548Z,6.42
2018-06-29T22:33:43.182Z,5.28
2018-06-29T22:36:53.971Z,5.37
2018-06-29T22:40:05.135Z,5.55
2018-06-29T22:43:15.965Z,4.58
2018-06-29T22:46:26.694Z,5.75
2018-06-29T22:49:37.366Z,5.25
2018-06-29T22:52:47.245Z,5.05
2018-06-29T22:55:57.295Z,5.00
2018-06-29T22:59:07.990Z,5.60
2018-06-29T23:02:18.167Z,7.72
2018-06-29T23:05:28.798Z,4.37
2018-06-29T23:08:39.425Z,5.97
2018-06-29T23:11:50.237Z,6.37
2018-06-29T23:15:00.230Z,6.37
2018-06-29T23:18:11.008Z,6.03
2018-06-29T23:21:24.471Z,5.55
2018-06-29T23:24:34.746Z,5.22
2018-06-29T23:27:44.966Z,5.20
2018-06-29T23:30:55.648Z,5.08
2018-06-29T23:34:05.794Z,6.90
2018-06-29T23:37:16.272Z,5.72
2018-06-29T23:40:26.205Z,5.25
2018-06-29T23:43:36.034Z,6.40
2018-06-29T23:46:45.884Z,5.60
2018-06-29T23:49:56.771Z,8.00
2018-06-29T23:53:07.618Z,6.08
2018-06-29T23:56:17.773Z,4.85
2018-06-29T23:59:28.388Z,7.47
